Time;durP1;ratioP1;P1;durP2;ratioP2;P2;SDS_P1;SDS_P2;PMS_P1;PMS_P2;Temp;Humidity;BMP_temperature;BMP_pressure;BME280_temperature;BME280_humidity;BME280_pressure;Samples;Min_cycle;Max_cycle;Signal;HPM_P1;HPM_P2
2021/09/17 00:01:46;;;;;;;2.30;2.10;;;20.10;99.90;;;;;;6178822;28;20238;-65
2021/09/17 00:04:50;;;;;;;2.23;1.67;;;20.00;99.90;;;;;;6179226;28;20226;-67
2021/09/17 00:07:54;;;;;;;2.27;2.07;;;19.90;99.90;;;;;;6179279;28;20234;-64
2021/09/17 00:10:58;;;;;;;2.00;1.60;;;19.90;99.90;;;;;;6178581;28;20234;-64
2021/09/17 00:14:02;;;;;;;2.83;2.17;;;19.90;99.90;;;;;;6178982;28;20230;-63
2021/09/17 00:17:05;;;;;;;2.10;1.87;;;20.00;99.90;;;;;;6178200;28;20227;-61
2021/09/17 00:20:10;;;;;;;2.00;1.83;;;20.10;99.90;;;;;;6183094;28;20735;-61
2021/09/17 00:23:14;;;;;;;2.10;1.83;;;20.20;99.90;;;;;;6187376;28;20237;-61
2021/09/17 00:26:18;;;;;;;4.07;2.50;;;20.30;99.90;;;;;;6193789;28;20356;-62
2021/09/17 00:29:21;;;;;;;3.10;1.80;;;20.40;99.90;;;;;;6197082;28;20241;-62
2021/09/17 00:32:24;;;;;;;3.33;2.03;;;20.40;99.90;;;;;;6188163;28;20236;-62
2021/09/17 00:35:28;;;;;;;3.43;2.40;;;20.40;99.90;;;;;;6195923;28;20225;-62
2021/09/17 00:38:31;;;;;;;2.40;2.10;;;20.50;99.90;;;;;;6201735;28;20217;-62
2021/09/17 00:41:36;;;;;;;2.20;2.00;;;20.40;99.90;;;;;;6193041;28;20280;-61
2021/09/17 00:44:39;;;;;;;2.23;2.03;;;20.40;99.90;;;;;;6184972;28;20236;-61
2021/09/17 00:47:43;;;;;;;4.67;2.27;;;20.40;99.90;;;;;;6201199;28;20276;-61
2021/09/17 00:50:46;;;;;;;9.67;6.03;;;20.50;99.90;;;;;;6201364;28;20234;-61
2021/09/17 00:53:50;;;;;;;3.67;2.97;;;20.50;99.90;;;;;;6201575;28;20229;-62
2021/09/17 00:56:54;;;;;;;2.70;2.20;;;20.60;99.90;;;;;;6202052;28;20229;-62
2021/09/17 00:59:57;;;;;;;4.43;2.97;;;20.60;99.90;;;;;;6202059;28;20553;-62
2021/09/17 01:03:00;;;;;;;3.77;2.60;;;20.60;99.90;;;;;;6202367;28;20238;-62
2021/09/17 01:06:04;;;;;;;4.73;2.67;;;20.60;99.90;;;;;;6202417;28;20237;-62
2021/09/17 01:09:08;;;;;;;3.43;2.50;;;20.60;99.90;;;;;;6201682;28;20233;-62
2021/09/17 01:12:12;;;;;;;3.43;2.70;;;20.60;99.90;;;;;;6201676;28;20229;-62
2021/09/17 01:15:16;;;;;;;3.80;2.73;;;20.60;99.90;;;;;;6202030;28;20244;-62
2021/09/17 01:18:19;;;;;;;2.90;2.70;;;20.70;99.90;;;;;;6201681;28;20230;-63
2021/09/17 01:21:24;;;;;;;5.90;3.40;;;20.60;99.90;;;;;;6201088;28;20579;-63
2021/09/17 01:24:28;;;;;;;3.03;2.57;;;20.70;99.90;;;;;;6201355;28;20685;-62
2021/09/17 01:27:31;;;;;;;3.07;2.77;;;20.70;99.90;;;;;;6201671;28;20229;-62
2021/09/17 01:30:34;;;;;;;3.53;2.60;;;20.70;99.90;;;;;;6201483;28;20240;-62
2021/09/17 01:33:37;;;;;;;5.90;2.60;;;20.60;99.90;;;;;;6201830;28;20221;-62
2021/09/17 01:36:42;;;;;;;3.07;2.83;;;20.60;99.90;;;;;;6201666;28;20209;-62
2021/09/17 01:39:45;;;;;;;3.47;2.50;;;20.50;99.90;;;;;;6201524;28;20642;-62
2021/09/17 01:42:48;;;;;;;2.83;2.10;;;20.50;99.90;;;;;;6201492;28;22214;-62
2021/09/17 01:45:52;;;;;;;2.90;2.63;;;20.50;99.90;;;;;;6197432;28;20666;-62
2021/09/17 01:48:55;;;;;;;4.20;3.13;;;20.50;99.90;;;;;;6201358;28;20291;-62
2021/09/17 01:52:00;;;;;;;4.30;2.90;;;20.50;99.90;;;;;;6201693;28;20244;-62
2021/09/17 01:55:04;;;;;;;3.63;2.30;;;20.40;99.90;;;;;;6201246;28;20232;-62
2021/09/17 01:58:07;;;;;;;3.90;3.10;;;20.40;99.90;;;;;;6201374;28;20221;-62
2021/09/17 02:01:11;;;;;;;5.27;3.47;;;20.20;99.90;;;;;;6201172;28;20229;-62
2021/09/17 02:04:16;;;;;;;3.30;2.27;;;20.10;99.90;;;;;;6201423;28;20229;-64
2021/09/17 02:07:20;;;;;;;2.77;2.57;;;20.00;99.90;;;;;;6201424;28;20226;-62
2021/09/17 02:10:24;;;;;;;4.33;2.20;;;20.00;99.90;;;;;;6200640;28;20712;-63
2021/09/17 02:13:28;;;;;;;2.77;1.93;;;20.00;99.90;;;;;;6200943;28;20698;-63
2021/09/17 02:16:31;;;;;;;4.57;2.37;;;20.10;99.90;;;;;;6201544;28;20241;-63
2021/09/17 02:19:34;;;;;;;2.40;1.87;;;20.10;99.90;;;;;;6201089;28;20240;-62
2021/09/17 02:22:39;;;;;;;2.33;2.13;;;20.10;99.90;;;;;;6201116;28;20249;-62
2021/09/17 02:25:42;;;;;;;2.00;1.77;;;20.10;99.90;;;;;;6201102;28;20233;-62
2021/09/17 02:28:45;;;;;;;5.17;2.20;;;20.10;99.90;;;;;;6200637;28;20576;-62
2021/09/17 02:31:48;;;;;;;2.17;1.97;;;20.10;99.90;;;;;;6200897;28;20245;-62
2021/09/17 02:34:51;;;;;;;2.60;2.07;;;20.00;99.90;;;;;;6200916;28;20288;-63
2021/09/17 02:37:56;;;;;;;4.00;2.30;;;20.00;99.90;;;;;;6201154;28;20241;-63
2021/09/17 02:40:59;;;;;;;2.33;2.03;;;20.10;99.90;;;;;;6200563;28;20249;-63
2021/09/17 02:44:02;;;;;;;6.10;2.20;;;20.10;99.90;;;;;;6201346;28;20229;-63
2021/09/17 02:47:05;;;;;;;2.87;1.90;;;20.10;99.90;;;;;;6200464;28;20669;-63
2021/09/17 02:50:10;;;;;;;4.77;2.17;;;20.20;99.90;;;;;;6196512;28;20246;-63
2021/09/17 02:53:14;;;;;;;2.20;2.00;;;20.30;99.90;;;;;;6202201;28;20233;-63
2021/09/17 02:56:18;;;;;;;3.90;2.93;;;20.30;99.90;;;;;;6205572;28;20226;-63
2021/09/17 02:59:21;;;;;;;3.47;2.40;;;20.30;99.90;;;;;;6205152;28;20658;-63
2021/09/17 03:02:24;;;;;;;2.80;2.30;;;20.30;99.90;;;;;;6205224;28;20241;-63
2021/09/17 03:05:27;;;;;;;2.70;2.30;;;20.30;99.90;;;;;;6205056;28;20659;-63
2021/09/17 03:08:32;;;;;;;3.27;1.90;;;20.30;99.90;;;;;;6204591;28;20238;-63
2021/09/17 03:11:36;;;;;;;1.97;1.70;;;20.30;99.90;;;;;;6204437;28;20236;-63
2021/09/17 03:14:39;;;;;;;4.27;2.10;;;20.30;99.90;;;;;;6204259;28;20255;-63
2021/09/17 03:17:42;;;;;;;3.70;2.30;;;20.30;99.90;;;;;;6204525;28;20694;-63
2021/09/17 03:20:47;;;;;;;2.57;1.83;;;20.30;99.90;;;;;;6204127;28;20588;-63
2021/09/17 03:23:52;;;;;;;2.77;2.10;;;20.30;99.90;;;;;;6204625;28;20229;-63
2021/09/17 03:26:56;;;;;;;2.57;1.73;;;20.20;99.90;;;;;;6204050;28;20240;-62
2021/09/17 03:29:59;;;;;;;3.90;2.00;;;20.20;99.90;;;;;;6204088;28;20240;-63
2021/09/17 03:33:02;;;;;;;3.73;2.07;;;20.10;99.90;;;;;;6204269;28;20240;-64
2021/09/17 03:36:05;;;;;;;2.77;1.97;;;20.00;99.90;;;;;;6204476;28;20558;-63
2021/09/17 03:39:11;;;;;;;5.33;2.10;;;20.00;99.90;;;;;;6203843;28;20229;-63
2021/09/17 03:42:14;;;;;;;3.17;1.80;;;20.00;99.90;;;;;;6204157;28;20252;-63
2021/09/17 03:45:17;;;;;;;3.17;2.50;;;20.10;99.90;;;;;;6203630;28;20720;-63
2021/09/17 03:48:20;;;;;;;4.50;2.20;;;20.00;99.90;;;;;;6203651;28;20569;-63
2021/09/17 03:51:24;;;;;;;3.50;2.30;;;20.00;99.90;;;;;;6203761;28;20234;-63
2021/09/17 03:54:28;;;;;;;2.30;1.83;;;20.00;99.90;;;;;;6203661;28;20572;-63
2021/09/17 03:57:31;;;;;;;6.20;1.97;;;20.00;99.90;;;;;;6198686;28;20604;-63
2021/09/17 04:00:35;;;;;;;4.20;2.30;;;20.00;99.90;;;;;;6203493;28;20233;-63
2021/09/17 04:03:38;;;;;;;3.37;1.87;;;20.00;99.90;;;;;;6202704;28;20300;-64
2021/09/17 04:06:42;;;;;;;2.57;1.93;;;20.00;99.90;;;;;;6203591;28;20225;-64
2021/09/17 04:09:47;;;;;;;3.13;2.10;;;19.90;99.90;;;;;;6203207;28;20697;-63
2021/09/17 04:12:50;;;;;;;2.27;1.70;;;19.90;99.90;;;;;;6203563;28;20237;-63
2021/09/17 04:15:53;;;;;;;3.60;1.90;;;19.90;99.90;;;;;;6202736;28;20740;-63
2021/09/17 04:18:57;;;;;;;2.60;2.40;;;19.90;99.90;;;;;;6202852;28;20233;-64
2021/09/17 04:22:00;;;;;;;2.83;2.23;;;20.00;99.90;;;;;;6203068;28;20248;-64
2021/09/17 04:25:05;;;;;;;2.37;1.67;;;20.00;99.90;;;;;;6203478;28;20237;-63
2021/09/17 04:28:08;;;;;;;2.73;2.17;;;19.90;99.90;;;;;;6203154;28;20550;-64
2021/09/17 04:31:11;;;;;;;3.47;2.03;;;20.00;99.90;;;;;;6202634;28;20589;-65
2021/09/17 04:34:15;;;;;;;2.27;1.87;;;20.00;99.90;;;;;;6202334;28;20236;-64
2021/09/17 04:37:18;;;;;;;3.27;2.50;;;19.90;99.90;;;;;;6202762;28;20244;-64
2021/09/17 04:40:23;;;;;;;3.50;2.30;;;19.90;99.90;;;;;;6202417;28;20237;-64
2021/09/17 04:43:27;;;;;;;1.97;1.87;;;19.90;99.90;;;;;;6202717;28;20237;-64
2021/09/17 04:46:30;;;;;;;3.67;2.67;;;19.90;99.90;;;;;;6202522;28;20230;-64
2021/09/17 04:49:33;;;;;;;2.73;1.83;;;19.90;99.90;;;;;;6202532;28;20248;-64
2021/09/17 04:52:37;;;;;;;3.30;1.80;;;19.90;99.90;;;;;;6202232;28;20252;-64
2021/09/17 04:55:42;;;;;;;5.07;2.10;;;19.90;99.90;;;;;;6202116;28;20600;-64
2021/09/17 04:58:45;;;;;;;2.63;2.00;;;19.90;99.90;;;;;;6197751;28;20237;-63
2021/09/17 05:01:48;;;;;;;3.40;2.10;;;19.90;99.90;;;;;;6202317;28;20233;-64
2021/09/17 05:04:52;;;;;;;4.70;2.60;;;19.90;99.90;;;;;;6201957;28;20244;-63
2021/09/17 05:07:55;;;;;;;2.60;2.40;;;19.90;99.90;;;;;;6202129;28;20233;-63
2021/09/17 05:10:59;;;;;;;3.70;3.07;;;19.90;99.90;;;;;;6202523;28;20241;-64
2021/09/17 05:14:02;;;;;;;5.60;2.37;;;19.90;99.90;;;;;;6202048;28;20244;-64
2021/09/17 05:17:06;;;;;;;2.53;2.33;;;19.90;99.90;;;;;;6201753;28;20237;-64
2021/09/17 05:20:10;;;;;;;2.70;2.50;;;20.00;99.90;;;;;;6201836;28;20275;-64
2021/09/17 05:23:13;;;;;;;5.93;2.90;;;20.00;99.90;;;;;;6188154;28;20226;-64
2021/09/17 05:26:18;;;;;;;3.53;2.47;;;20.00;99.90;;;;;;6195681;28;20225;-64
2021/09/17 05:29:21;;;;;;;4.40;2.53;;;20.00;99.90;;;;;;6199965;28;20226;-64
2021/09/17 05:32:24;;;;;;;3.10;2.90;;;20.00;99.90;;;;;;6201158;28;20564;-63
2021/09/17 05:35:27;;;;;;;2.67;1.93;;;20.10;99.90;;;;;;6201554;28;20311;-63
2021/09/17 05:38:30;;;;;;;2.60;2.40;;;20.10;99.90;;;;;;6201052;28;20244;-63
2021/09/17 05:41:35;;;;;;;2.47;2.27;;;20.10;99.90;;;;;;6201539;28;20241;-62
2021/09/17 05:44:38;;;;;;;2.63;2.20;;;20.10;99.90;;;;;;6201483;28;20238;-63
2021/09/17 05:47:43;;;;;;;2.83;2.63;;;20.20;99.90;;;;;;6201268;28;20287;-63
2021/09/17 05:50:46;;;;;;;4.30;2.80;;;20.20;99.90;;;;;;6201042;28;20270;-64
2021/09/17 05:53:50;;;;;;;5.73;2.60;;;20.10;99.90;;;;;;6201214;28;20225;-64
2021/09/17 05:56:54;;;;;;;2.53;2.03;;;20.20;99.90;;;;;;6201145;28;20234;-64
2021/09/17 05:59:57;;;;;;;2.57;2.27;;;20.20;99.90;;;;;;6200715;28;20229;-63
2021/09/17 06:03:00;;;;;;;4.77;2.47;;;20.30;99.90;;;;;;6191988;28;20232;-63
2021/09/17 06:06:04;;;;;;;4.30;3.10;;;20.40;99.90;;;;;;6201158;28;20237;-63
2021/09/17 06:09:07;;;;;;;3.50;2.33;;;20.40;99.90;;;;;;6201352;28;20237;-63
2021/09/17 06:12:11;;;;;;;3.50;2.90;;;20.40;99.90;;;;;;6200956;28;20259;-63
2021/09/17 06:15:16;;;;;;;2.40;2.17;;;20.50;99.90;;;;;;6201049;28;20244;-63
2021/09/17 06:18:20;;;;;;;5.33;3.70;;;20.50;99.90;;;;;;6200979;28;20371;-63
2021/09/17 06:21:23;;;;;;;2.90;2.60;;;20.60;99.90;;;;;;6200779;28;20233;-64
2021/09/17 06:24:26;;;;;;;2.60;2.40;;;20.60;99.90;;;;;;6200560;28;20233;-63
2021/09/17 06:27:30;;;;;;;2.50;2.23;;;20.60;99.90;;;;;;6201821;28;20240;-64
2021/09/17 06:30:34;;;;;;;3.43;2.50;;;20.70;99.90;;;;;;6205848;28;20240;-64
2021/09/17 06:33:37;;;;;;;3.20;2.87;;;20.70;99.90;;;;;;6204984;28;20712;-64
2021/09/17 06:36:41;;;;;;;2.00;1.90;;;20.70;99.90;;;;;;6204981;28;20213;-63
2021/09/17 06:39:44;;;;;;;2.70;2.33;;;20.80;99.90;;;;;;6205976;28;20224;-63
2021/09/17 06:42:49;;;;;;;3.73;2.83;;;20.90;99.90;;;;;;6205866;28;20257;-64
2021/09/17 06:45:52;;;;;;;2.87;2.63;;;21.00;99.90;;;;;;6206028;28;20244;-63
2021/09/17 06:48:55;;;;;;;4.47;4.00;;;21.10;99.90;;;;;;6205171;28;20694;-63
2021/09/17 06:51:59;;;;;;;3.50;3.20;;;21.10;99.90;;;;;;6205041;28;20261;-63
2021/09/17 06:55:02;;;;;;;2.40;1.53;;;21.20;99.90;;;;;;6204715;28;20546;-63
2021/09/17 06:58:07;;;;;;;2.30;2.10;;;21.20;99.90;;;;;;6205767;28;20233;-63
2021/09/17 07:01:10;;;;;;;3.20;2.00;;;21.30;99.90;;;;;;6205063;28;20683;-63
2021/09/17 07:04:14;;;;;;;3.17;2.47;;;21.30;99.90;;;;;;6200404;28;20295;-64
2021/09/17 07:07:17;;;;;;;3.43;2.60;;;21.40;99.90;;;;;;6204562;28;20241;-63
2021/09/17 07:10:20;;;;;;;2.40;2.20;;;21.40;99.90;;;;;;6204876;28;20241;-64
2021/09/17 07:13:25;;;;;;;3.73;2.37;;;21.50;99.90;;;;;;6204632;28;20233;-64
2021/09/17 07:16:28;;;;;;;4.10;2.40;;;21.60;99.90;;;;;;6204877;28;20229;-63
2021/09/17 07:19:31;;;;;;;2.83;2.50;;;21.60;99.90;;;;;;6204923;28;20678;-64
2021/09/17 07:22:35;;;;;;;4.90;2.73;;;21.60;99.90;;;;;;6204422;28;20245;-64
2021/09/17 07:25:39;;;;;;;3.87;2.23;;;21.60;99.90;;;;;;6204511;28;20241;-63
2021/09/17 07:28:46;;;;;;;12.00;3.03;;;21.60;99.90;;;;;;6204802;28;20320;-63
2021/09/17 07:31:49;;;;;;;2.17;1.93;;;21.60;99.90;;;;;;6204641;28;20229;-64
2021/09/17 07:34:53;;;;;;;3.90;2.77;;;21.60;99.90;;;;;;6204477;28;20249;-64
2021/09/17 07:37:57;;;;;;;3.20;2.90;;;21.80;99.90;;;;;;6204358;28;20260;-63
2021/09/17 07:41:00;;;;;;;3.30;2.37;;;21.90;99.90;;;;;;6203986;28;20237;-63
2021/09/17 07:44:05;;;;;;;4.30;2.60;;;22.00;99.90;;;;;;6204219;28;20240;-64
2021/09/17 07:47:09;;;;;;;3.60;2.53;;;22.10;99.90;;;;;;6204212;28;20352;-64
2021/09/17 07:50:16;;;;;;;3.70;1.90;;;22.20;99.90;;;;;;6203663;28;20244;-64
2021/09/17 07:53:19;;;;;;;2.20;1.90;;;22.20;99.90;;;;;;6204151;28;20229;-63
2021/09/17 07:56:22;;;;;;;2.87;1.67;;;22.40;99.90;;;;;;6204001;28;20677;-63
2021/09/17 07:59:27;;;;;;;3.70;1.33;;;22.60;99.90;;;;;;6203089;28;20309;-63
2021/09/17 08:02:30;;;;;;;1.90;1.03;;;22.80;99.90;;;;;;6202944;28;20234;-64
2021/09/17 08:05:34;;;;;;;0.80;0.80;;;23.20;99.90;;;;;;6203658;28;20325;-63
2021/09/17 08:08:37;;;;;;;2.03;1.20;;;23.70;99.90;;;;;;6190985;28;20228;-64
2021/09/17 08:11:43;;;;;;;1.17;1.00;;;24.10;99.60;;;;;;6168229;28;20310;-68
2021/09/17 08:14:47;;;;;;;1.93;1.30;;;24.60;99.10;;;;;;6177305;28;20244;-65
2021/09/17 08:17:50;;;;;;;1.50;1.13;;;25.20;98.10;;;;;;6178593;28;20226;-67
2021/09/17 08:20:57;;;;;;;3.83;1.10;;;25.70;96.90;;;;;;6178692;28;20218;-65
2021/09/17 08:24:01;;;;;;;1.20;0.90;;;26.30;95.20;;;;;;6178973;28;20238;-66
2021/09/17 08:27:05;;;;;;;1.90;0.70;;;27.10;92.40;;;;;;6178801;28;20233;-67
2021/09/17 08:30:11;;;;;;;1.87;1.03;;;28.00;90.50;;;;;;6178498;28;20233;-65
2021/09/17 08:33:14;;;;;;;1.97;0.80;;;28.80;82.90;;;;;;6178889;28;20263;-66
2021/09/17 08:36:18;;;;;;;1.47;0.80;;;29.10;78.80;;;;;;6178517;28;20797;-67
2021/09/17 08:39:21;;;;;;;2.63;1.33;;;28.90;77.50;;;;;;6180365;28;20681;-65
2021/09/17 08:42:24;;;;;;;1.03;0.87;;;28.60;75.50;;;;;;6180241;28;20234;-67
2021/09/17 08:45:31;;;;;;;1.00;0.80;;;28.40;73.80;;;;;;6179273;28;20233;-66
2021/09/17 08:48:34;;;;;;;1.50;1.00;;;28.50;73.20;;;;;;6155039;28;20225;-66
2021/09/17 08:51:38;;;;;;;1.10;0.90;;;28.60;71.70;;;;;;6153994;28;20332;-65
2021/09/17 08:54:41;;;;;;;1.30;1.07;;;28.30;71.90;;;;;;6154281;28;20211;-67
2021/09/17 08:57:45;;;;;;;1.00;0.80;;;27.70;72.10;;;;;;6154370;28;20210;-67
2021/09/17 09:00:50;;;;;;;1.00;0.70;;;27.10;71.20;;;;;;6154490;28;20714;-67
2021/09/17 09:03:57;;;;;;;1.17;1.07;;;26.50;71.70;;;;;;6153835;28;20612;-66
2021/09/17 09:07:05;;;;;;;6.77;1.27;;;25.90;74.10;;;;;;6156872;28;20281;-68
2021/09/17 09:10:11;;;;;;;1.27;1.10;;;25.60;75.30;;;;;;6156436;28;20227;-63
2021/09/17 09:13:17;;;;;;;1.37;0.93;;;25.40;76.50;;;;;;6157256;28;20237;-66
2021/09/17 09:16:21;;;;;;;1.10;1.00;;;25.10;75.60;;;;;;6178117;28;20619;-66
2021/09/17 09:19:27;;;;;;;1.17;0.90;;;25.00;75.80;;;;;;6177568;28;20233;-65
2021/09/17 09:22:30;;;;;;;1.00;0.80;;;25.00;75.10;;;;;;6177785;28;20234;-64
2021/09/17 09:25:35;;;;;;;1.40;1.30;;;25.00;75.90;;;;;;6177815;28;20237;-66
2021/09/17 09:28:42;;;;;;;1.30;1.10;;;25.10;76.90;;;;;;6178401;28;20242;-67
2021/09/17 09:31:47;;;;;;;1.60;1.50;;;25.10;74.70;;;;;;6177718;28;20233;-64
2021/09/17 09:34:53;;;;;;;1.60;1.50;;;25.10;74.40;;;;;;6178116;28;20245;-64
2021/09/17 09:37:56;;;;;;;1.70;1.40;;;25.20;71.10;;;;;;6178080;28;20237;-66
2021/09/17 09:41:01;;;;;;;1.60;1.50;;;25.20;67.70;;;;;;6177541;28;20241;-65
2021/09/17 09:44:06;;;;;;;2.03;1.83;;;25.00;65.90;;;;;;6178303;28;20245;-66
2021/09/17 09:47:11;;;;;;;2.20;1.37;;;24.80;67.60;;;;;;6178439;28;20229;-67
2021/09/17 09:50:16;;;;;;;1.67;1.57;;;24.60;67.30;;;;;;6178111;28;20286;-66
2021/09/17 09:53:20;;;;;;;1.60;1.37;;;24.50;66.20;;;;;;6177256;28;20252;-65
2021/09/17 09:56:24;;;;;;;1.73;1.63;;;24.30;66.80;;;;;;6177503;28;20311;-67
2021/09/17 09:59:28;;;;;;;1.97;1.43;;;24.30;66.70;;;;;;6177522;28;20234;-65
2021/09/17 10:02:34;;;;;;;2.67;1.80;;;24.40;66.60;;;;;;6179786;28;20646;-66
2021/09/17 10:05:38;;;;;;;1.53;1.43;;;24.50;64.60;;;;;;6181888;28;20316;-66
2021/09/17 10:08:42;;;;;;;1.40;1.30;;;24.70;62.80;;;;;;6181935;28;20236;-68
2021/09/17 10:11:45;;;;;;;1.90;1.80;;;25.00;63.10;;;;;;6181618;28;20689;-65
2021/09/17 10:14:49;;;;;;;2.07;1.40;;;25.30;61.30;;;;;;6181848;28;20527;-68
2021/09/17 10:17:57;;;;;;;1.83;1.73;;;25.40;60.30;;;;;;6181686;28;20245;-67
2021/09/17 10:21:00;;;;;;;2.47;1.47;;;25.40;58.90;;;;;;6181883;28;20245;-67
2021/09/17 10:24:35;;;;;;;1.70;1.60;;;25.70;59.00;;;;;;6181807;28;20594;-66
2021/09/17 10:27:39;;;;;;;2.03;1.40;;;26.00;58.20;;;;;;6191227;28;20224;-66
2021/09/17 10:30:43;;;;;;;1.93;1.83;;;26.20;56.50;;;;;;6204654;28;20213;-67
2021/09/17 10:33:48;;;;;;;2.43;1.70;;;26.60;56.40;;;;;;6185946;28;20248;-66
2021/09/17 10:36:51;;;;;;;1.53;1.43;;;27.00;54.90;;;;;;6205921;28;20220;-66
2021/09/17 10:40:07;;;;;;;1.53;1.43;;;27.30;54.40;;;;;;6205486;28;20229;-72
2021/09/17 10:43:16;;;;;;;1.93;1.67;;;27.60;52.70;;;;;;6205237;28;20228;-70
2021/09/17 10:46:33;;;;;;;1.30;1.20;;;27.70;52.50;;;;;;6204871;28;20236;-67
2021/09/17 10:50:05;;;;;;;2.27;1.80;;;27.90;50.80;;;;;;6205437;28;20243;-67
2021/09/17 10:53:09;;;;;;;2.40;1.83;;;28.00;51.60;;;;;;6205001;28;20240;-68
2021/09/17 10:56:12;;;;;;;1.50;1.40;;;28.60;50.40;;;;;;6205020;28;20229;-68
2021/09/17 10:59:21;;;;;;;2.00;1.60;;;29.10;48.70;;;;;;6204679;28;20315;-67
2021/09/17 11:02:42;;;;;;;2.20;1.77;;;29.20;49.20;;;;;;6204773;28;20228;-66
2021/09/17 11:06:27;;;;;;;1.60;1.50;;;29.10;50.70;;;;;;6204942;28;20229;-67
2021/09/17 11:09:44;;;;;;;1.77;1.67;;;28.90;49.20;;;;;;6204778;28;20312;-70
2021/09/17 11:12:47;;;;;;;2.07;1.87;;;28.50;48.90;;;;;;6201344;28;20230;-68
2021/09/17 11:15:51;;;;;;;2.53;2.03;;;28.20;48.80;;;;;;6180275;28;20526;-68
2021/09/17 11:18:57;;;;;;;1.70;1.60;;;27.80;50.00;;;;;;6180745;28;20225;-68
2021/09/17 11:22:01;;;;;;;2.17;1.97;;;27.60;50.70;;;;;;6175554;28;20230;-70
2021/09/17 11:25:06;;;;;;;1.73;1.63;;;27.30;49.60;;;;;;6181466;28;20685;-71
2021/09/17 11:28:28;;;;;;;1.53;1.43;;;27.00;49.70;;;;;;6180462;28;20236;-68
2021/09/17 11:31:34;;;;;;;3.23;1.70;;;26.50;50.40;;;;;;6180427;28;20273;-70
2021/09/17 11:34:37;;;;;;;1.80;1.70;;;26.20;51.10;;;;;;6181501;28;20225;-64
2021/09/17 11:37:49;;;;;;;2.47;1.80;;;26.00;51.50;;;;;;6182766;28;20229;-64
2021/09/17 11:40:53;;;;;;;5.87;2.10;;;25.80;53.00;;;;;;6194764;28;20700;-67
2021/09/17 11:43:57;;;;;;;1.70;1.60;;;25.70;52.30;;;;;;6201088;28;20230;-68
2021/09/17 11:47:01;;;;;;;1.93;1.40;;;25.60;53.30;;;;;;6199784;28;20232;-68
2021/09/17 11:50:08;;;;;;;2.20;2.00;;;25.40;53.40;;;;;;6205507;28;20222;-70
2021/09/17 11:53:13;;;;;;;4.27;2.60;;;25.40;56.20;;;;;;6205611;28;20579;-66
2021/09/17 11:56:16;;;;;;;2.00;1.90;;;25.40;53.40;;;;;;6206534;28;20343;-67
2021/09/17 11:59:32;;;;;;;1.80;1.70;;;25.60;53.00;;;;;;6205037;28;20225;-70
2021/09/17 12:02:35;;;;;;;2.40;2.20;;;26.00;52.00;;;;;;6204516;28;20244;-68
2021/09/17 12:05:40;;;;;;;2.00;1.70;;;26.20;51.10;;;;;;6203631;28;20728;-67
2021/09/17 12:08:45;;;;;;;2.67;2.20;;;26.30;50.70;;;;;;6203953;28;20225;-68
2021/09/17 12:11:56;;;;;;;2.10;1.90;;;26.30;51.00;;;;;;6203043;28;20658;-67
2021/09/17 12:15:00;;;;;;;2.77;2.03;;;26.40;50.80;;;;;;6182566;28;20573;-66
2021/09/17 12:18:06;;;;;;;7.00;2.43;;;26.50;51.00;;;;;;6178903;28;20230;-66
2021/09/17 12:21:21;;;;;;;2.10;1.97;;;26.30;50.30;;;;;;6179300;28;20666;-70
2021/09/17 12:24:45;;;;;;;2.20;2.00;;;26.40;51.40;;;;;;6173638;28;20230;-70
2021/09/17 12:27:55;;;;;;;3.23;2.93;;;26.70;50.20;;;;;;6177239;28;20201;-68
2021/09/17 12:30:58;;;;;;;2.83;2.10;;;27.10;49.70;;;;;;6177975;28;20237;-69
2021/09/17 12:34:06;;;;;;;1.73;1.53;;;27.20;49.60;;;;;;6178314;28;20237;-66
2021/09/17 12:37:14;;;;;;;3.53;1.90;;;27.00;48.40;;;;;;6178642;28;20677;-69
2021/09/17 12:40:21;;;;;;;2.40;1.53;;;26.70;48.20;;;;;;6178429;28;20567;-67
2021/09/17 12:43:27;;;;;;;2.00;1.70;;;26.50;48.80;;;;;;6178679;28;20240;-66
2021/09/17 12:46:33;;;;;;;1.90;1.80;;;26.40;47.30;;;;;;6178977;28;20229;-65
2021/09/17 12:49:37;;;;;;;2.03;1.80;;;26.30;47.50;;;;;;6178423;28;20685;-65
2021/09/17 12:52:43;;;;;;;1.80;1.70;;;26.30;50.80;;;;;;6179039;28;20265;-64
2021/09/17 12:55:49;;;;;;;2.93;2.17;;;26.30;49.70;;;;;;6178596;28;20233;-64
2021/09/17 12:59:08;;;;;;;2.40;2.20;;;26.40;50.70;;;;;;6178491;28;20233;-64
2021/09/17 13:02:11;;;;;;;2.10;1.83;;;26.60;49.80;;;;;;6178231;28;20559;-66
2021/09/17 13:05:14;;;;;;;1.70;1.60;;;26.80;48.30;;;;;;6178463;28;20240;-64
2021/09/17 13:08:18;;;;;;;2.40;1.90;;;26.90;49.50;;;;;;6178458;28;20244;-65
2021/09/17 13:11:22;;;;;;;4.03;2.00;;;27.00;47.20;;;;;;6178082;28;20237;-68
2021/09/17 13:14:26;;;;;;;1.90;1.80;;;27.10;47.20;;;;;;6176171;28;20233;-68
2021/09/17 13:17:29;;;;;;;2.20;2.00;;;27.20;46.90;;;;;;6177715;28;20244;-66
2021/09/17 13:20:33;;;;;;;2.47;2.10;;;27.00;62.60;;;;;;6177695;28;20241;-69
2021/09/17 13:23:36;;;;;;;2.27;2.07;;;26.60;67.10;;;;;;6177564;28;20230;-66
2021/09/17 13:26:41;;;;;;;2.43;2.23;;;26.30;68.80;;;;;;6177983;28;20233;-68
2021/09/17 13:29:44;;;;;;;1.90;1.80;;;26.30;69.90;;;;;;6173137;28;20237;-67
2021/09/17 13:32:48;;;;;;;2.07;1.87;;;25.80;71.00;;;;;;6177663;28;20241;-68
2021/09/17 13:35:51;;;;;;;3.63;1.73;;;25.30;72.70;;;;;;6177443;28;20234;-68
2021/09/17 13:38:54;;;;;;;2.07;1.87;;;24.90;75.40;;;;;;6177786;28;20226;-69
2021/09/17 13:41:59;;;;;;;1.93;1.83;;;24.90;76.60;;;;;;6177519;28;20293;-68
2021/09/17 13:45:03;;;;;;;1.97;1.87;;;24.70;77.30;;;;;;6177734;28;20292;-67
2021/09/17 13:48:06;;;;;;;3.13;2.67;;;24.70;77.60;;;;;;6177906;28;20320;-68
2021/09/17 13:51:10;;;;;;;2.60;2.40;;;24.40;78.50;;;;;;6179054;28;20233;-69
2021/09/17 13:54:13;;;;;;;3.03;1.97;;;24.40;78.80;;;;;;6192550;28;20868;-66
2021/09/17 13:57:18;;;;;;;2.43;2.23;;;24.40;78.70;;;;;;6184119;28;20235;-66
2021/09/17 14:00:26;;;;;;;2.17;1.97;;;24.30;78.40;;;;;;6184878;28;20244;-67
2021/09/17 14:03:29;;;;;;;2.50;2.20;;;24.10;79.60;;;;;;6186508;28;20222;-66
2021/09/17 14:06:33;;;;;;;2.30;1.90;;;24.10;80.40;;;;;;6182956;28;20226;-67
2021/09/17 14:09:36;;;;;;;2.53;2.33;;;24.20;80.70;;;;;;6183998;28;20241;-67
2021/09/17 14:12:40;;;;;;;2.87;2.67;;;23.90;84.40;;;;;;6199756;28;20494;-67
2021/09/17 14:15:43;;;;;;;2.63;2.43;;;23.50;86.40;;;;;;6177742;28;20238;-67
2021/09/17 14:18:47;;;;;;;2.10;2.00;;;23.40;86.70;;;;;;6177708;28;20296;-67
2021/09/17 14:21:50;;;;;;;4.93;2.70;;;23.40;88.00;;;;;;6177291;28;20675;-67
2021/09/17 14:24:54;;;;;;;2.70;2.50;;;23.60;87.60;;;;;;6177438;28;20240;-67
2021/09/17 14:27:59;;;;;;;3.30;2.80;;;23.60;88.00;;;;;;6177522;28;20229;-67
2021/09/17 14:31:02;;;;;;;3.70;2.77;;;23.40;86.60;;;;;;6178586;28;20248;-65
2021/09/17 14:34:06;;;;;;;2.93;2.70;;;23.00;90.80;;;;;;6176416;28;20244;-65
2021/09/17 14:37:10;;;;;;;2.67;2.47;;;22.60;91.90;;;;;;6182715;28;20234;-65
2021/09/17 14:40:13;;;;;;;3.47;2.20;;;22.40;92.70;;;;;;6195583;28;20704;-66
2021/09/17 14:43:18;;;;;;;3.73;2.20;;;22.20;93.10;;;;;;6190230;28;20234;-65
2021/09/17 14:46:21;;;;;;;2.57;2.37;;;21.90;94.10;;;;;;6200721;28;20230;-65
2021/09/17 14:49:24;;;;;;;3.00;2.80;;;21.70;95.00;;;;;;6197542;28;20555;-65
2021/09/17 14:52:28;;;;;;;5.43;3.17;;;21.80;95.70;;;;;;6195028;28;20712;-66
2021/09/17 14:55:31;;;;;;;2.97;2.67;;;21.70;96.20;;;;;;6201254;28;20706;-66
2021/09/17 14:58:36;;;;;;;2.70;2.50;;;21.70;96.70;;;;;;6203071;28;20670;-66
2021/09/17 15:01:39;;;;;;;5.33;2.70;;;21.70;96.80;;;;;;6204583;28;20368;-66
2021/09/17 15:04:43;;;;;;;3.40;2.77;;;21.80;96.80;;;;;;6202082;28;20241;-67
2021/09/17 15:07:46;;;;;;;3.63;2.67;;;21.80;96.70;;;;;;6191405;28;20283;-67
2021/09/17 15:10:49;;;;;;;2.80;2.60;;;21.80;97.00;;;;;;6198027;28;20229;-66
2021/09/17 15:13:54;;;;;;;2.60;2.40;;;21.80;97.40;;;;;;6177633;28;20651;-67
2021/09/17 15:16:57;;;;;;;3.00;2.73;;;21.80;98.00;;;;;;6193992;28;20234;-68
2021/09/17 15:20:00;;;;;;;3.80;3.47;;;21.70;98.40;;;;;;6198570;28;20334;-67
2021/09/17 15:23:04;;;;;;;3.83;3.53;;;21.50;98.90;;;;;;6197981;28;20233;-67
2021/09/17 15:26:07;;;;;;;3.30;3.00;;;21.40;99.50;;;;;;6198770;28;20230;-67
2021/09/17 15:29:12;;;;;;;3.47;3.10;;;21.40;99.80;;;;;;6190784;28;20276;-66
2021/09/17 15:32:16;;;;;;;4.23;3.20;;;21.20;99.90;;;;;;6180043;28;20245;-66
2021/09/17 15:35:19;;;;;;;3.67;3.37;;;21.10;99.90;;;;;;6190717;28;20237;-66
2021/09/17 15:38:22;;;;;;;3.17;2.97;;;21.10;99.90;;;;;;6182186;28;20238;-67
2021/09/17 15:41:25;;;;;;;3.07;2.73;;;21.00;99.90;;;;;;6202179;28;20237;-66
2021/09/17 15:44:32;;;;;;;3.63;3.33;;;20.90;99.90;;;;;;6204028;28;20226;-66
2021/09/17 15:47:36;;;;;;;3.40;3.10;;;20.90;99.90;;;;;;6193535;28;20227;-66
2021/09/17 15:50:40;;;;;;;6.13;3.47;;;21.00;99.90;;;;;;6195762;28;20241;-66
2021/09/17 15:53:43;;;;;;;3.70;3.40;;;21.00;99.90;;;;;;6203533;28;20248;-66
2021/09/17 15:56:46;;;;;;;3.70;3.40;;;21.20;99.90;;;;;;6202612;28;20240;-67
2021/09/17 15:59:51;;;;;;;4.17;3.87;;;21.20;99.90;;;;;;6202533;28;20229;-66
2021/09/17 16:02:54;;;;;;;4.23;3.27;;;21.20;99.90;;;;;;6202995;28;20233;-66